Time;durP1;ratioP1;P1;durP2;ratioP2;P2;SDS_P1;SDS_P2;PMS_P1;PMS_P2;Temp;Humidity;BMP_temperature;BMP_pressure;BME280_temperature;BME280_humidity;BME280_pressure;Samples;Min_cycle;Max_cycle;Signal;HPM_P1;HPM_P2
2021/12/15 00:00:18;;;;;;;39.28;30.05;;;;;;;;;;5113668;28;20047;-64
2021/12/15 00:02:45;;;;;;;40.50;30.15;;;;;;;;;;5112623;28;20051;-65
2021/12/15 00:05:19;;;;;;;39.25;30.10;;;;;;;;;;5113276;28;20467;-65
2021/12/15 00:07:47;;;;;;;42.13;31.08;;;;;;;;;;5113326;28;20051;-65
2021/12/15 00:10:13;;;;;;;40.05;29.75;;;;;;;;;;5112809;28;20043;-65
2021/12/15 00:12:40;;;;;;;40.17;29.42;;;;;;;;;;5113543;28;20527;-65
2021/12/15 00:15:06;;;;;;;40.05;29.63;;;;;;;;;;5112996;28;20039;-65
2021/12/15 00:17:32;;;;;;;39.33;29.55;;;;;;;;;;5112602;27;20478;-65
2021/12/15 00:19:59;;;;;;;37.85;28.38;;;;;;;;;;5113158;28;20054;-65
2021/12/15 00:22:25;;;;;;;38.28;28.48;;;;;;;;;;5113341;28;20047;-65
2021/12/15 00:24:52;;;;;;;36.47;28.90;;;;;;;;;;5112177;28;20493;-65
2021/12/15 00:27:19;;;;;;;39.45;29.70;;;;;;;;;;5112952;28;20432;-65
2021/12/15 00:29:45;;;;;;;36.60;28.35;;;;;;;;;;5112817;28;20055;-65
2021/12/15 00:32:11;;;;;;;37.17;29.40;;;;;;;;;;5113421;28;20040;-65
2021/12/15 00:34:39;;;;;;;35.40;27.85;;;;;;;;;;5113236;27;20043;-65
2021/12/15 00:37:06;;;;;;;38.65;28.60;;;;;;;;;;5112396;28;20120;-65
2021/12/15 00:39:33;;;;;;;38.70;29.08;;;;;;;;;;5112841;28;20089;-65
2021/12/15 00:42:01;;;;;;;37.10;28.15;;;;;;;;;;5112634;28;20039;-65
2021/12/15 00:44:27;;;;;;;35.88;27.67;;;;;;;;;;5112313;28;20040;-65
2021/12/15 00:46:54;;;;;;;35.78;27.65;;;;;;;;;;5112392;28;20693;-65
2021/12/15 00:49:20;;;;;;;36.15;27.77;;;;;;;;;;5112868;27;20446;-64
2021/12/15 00:51:47;;;;;;;38.55;28.10;;;;;;;;;;5111592;28;20493;-64
2021/12/15 00:54:13;;;;;;;35.63;28.00;;;;;;;;;;5112766;28;20096;-64
2021/12/15 00:56:40;;;;;;;34.95;28.23;;;;;;;;;;5112749;28;20048;-64
2021/12/15 00:59:08;;;;;;;35.60;27.02;;;;;;;;;;5111824;28;20067;-64
2021/12/15 01:01:35;;;;;;;35.58;28.00;;;;;;;;;;5112635;28;20456;-64
2021/12/15 01:04:01;;;;;;;34.53;27.10;;;;;;;;;;5112326;28;20063;-64
2021/12/15 01:06:29;;;;;;;35.60;27.88;;;;;;;;;;5111606;28;20048;-64
2021/12/15 01:08:58;;;;;;;34.45;26.80;;;;;;;;;;5112010;28;20039;-64
2021/12/15 01:11:32;;;;;;;34.15;26.60;;;;;;;;;;5112564;28;20051;-64
2021/12/15 01:19:51;;;;;;;36.45;28.10;;;;;;;;;;5111963;28;20144;-64
2021/12/15 01:22:20;;;;;;;34.67;27.27;;;;;;;;;;5112273;28;20135;-64
2021/12/15 01:24:46;;;;;;;33.95;27.15;;;;;;;;;;5112094;28;20195;-64
2021/12/15 01:27:13;;;;;;;33.58;26.52;;;;;;;;;;5111436;28;20093;-64
2021/12/15 01:29:39;;;;;;;33.65;27.00;;;;;;;;;;5112068;28;20047;-64
2021/12/15 01:32:09;;;;;;;35.08;27.60;;;;;;;;;;5112335;28;20473;-64
2021/12/15 01:34:36;;;;;;;33.63;26.70;;;;;;;;;;5111436;28;20073;-64
2021/12/15 01:37:02;;;;;;;34.38;27.05;;;;;;;;;;5111943;28;20059;-65
2021/12/15 01:39:28;;;;;;;34.20;26.90;;;;;;;;;;5112016;28;20071;-64
2021/12/15 01:41:56;;;;;;;34.95;27.58;;;;;;;;;;5110819;28;20101;-64
2021/12/15 01:47:06;;;;;;;32.75;27.05;;;;;;;;;;5111307;28;20058;-65
2021/12/15 01:49:37;;;;;;;31.73;25.90;;;;;;;;;;5109802;28;20668;-64
2021/12/15 01:52:04;;;;;;;33.53;26.48;;;;;;;;;;5111586;28;20048;-64
2021/12/15 01:54:31;;;;;;;34.42;27.67;;;;;;;;;;5111104;28;20089;-64
2021/12/15 01:56:58;;;;;;;34.08;27.33;;;;;;;;;;5111365;28;20040;-64
2021/12/15 01:59:26;;;;;;;35.78;27.73;;;;;;;;;;5111520;28;20043;-64
2021/12/15 02:01:52;;;;;;;34.33;27.40;;;;;;;;;;5110523;28;20051;-64
2021/12/15 02:04:19;;;;;;;34.00;27.05;;;;;;;;;;5111565;28;20044;-64
2021/12/15 02:06:49;;;;;;;35.03;27.73;;;;;;;;;;5111479;28;20047;-64
2021/12/15 02:09:21;;;;;;;35.53;27.20;;;;;;;;;;5110621;28;20059;-64
2021/12/15 02:11:48;;;;;;;36.65;28.75;;;;;;;;;;5111243;28;20051;-64
2021/12/15 02:14:14;;;;;;;34.65;27.70;;;;;;;;;;5111589;28;20048;-64
2021/12/15 02:16:40;;;;;;;34.50;28.27;;;;;;;;;;5110912;28;20120;-64
2021/12/15 02:19:07;;;;;;;34.05;26.98;;;;;;;;;;5111341;28;20044;-65
2021/12/15 02:21:34;;;;;;;36.00;27.83;;;;;;;;;;5111591;28;20051;-65
2021/12/15 02:24:01;;;;;;;35.55;28.63;;;;;;;;;;5110311;28;20093;-64
2021/12/15 02:26:31;;;;;;;36.17;28.38;;;;;;;;;;5111258;28;20054;-64
2021/12/15 02:28:59;;;;;;;38.17;28.77;;;;;;;;;;5114645;28;20437;-64
2021/12/15 02:31:37;;;;;;;36.88;29.70;;;;;;;;;;5114585;28;20047;-65
2021/12/15 02:34:18;;;;;;;35.08;28.05;;;;;;;;;;5115272;28;20062;-64
2021/12/15 02:39:35;;;;;;;36.03;29.67;;;;;;;;;;5106109;28;20059;-64
2021/12/15 02:42:01;;;;;;;36.92;30.08;;;;;;;;;;5115431;28;20342;-64
2021/12/15 02:44:27;;;;;;;37.78;30.15;;;;;;;;;;5114457;28;20051;-64
2021/12/15 02:46:55;;;;;;;37.80;30.38;;;;;;;;;;5115941;28;20077;-65
2021/12/15 02:49:23;;;;;;;37.70;29.42;;;;;;;;;;5115513;28;20188;-64
2021/12/15 02:51:52;;;;;;;39.53;30.80;;;;;;;;;;5114494;28;20447;-64
2021/12/15 02:54:19;;;;;;;37.78;30.67;;;;;;;;;;5115453;28;20485;-64
2021/12/15 02:56:47;;;;;;;40.30;31.35;;;;;;;;;;5114901;28;20055;-64
2021/12/15 02:59:15;;;;;;;38.97;31.25;;;;;;;;;;5114820;28;20047;-64
2021/12/15 03:01:56;;;;;;;35.40;28.88;;;;;;;;;;5114662;28;20063;-64
2021/12/15 03:04:31;;;;;;;38.97;31.15;;;;;;;;;;5114787;28;20485;-64
2021/12/15 03:07:06;;;;;;;37.75;30.33;;;;;;;;;;5113823;28;20143;-64
2021/12/15 03:17:53;;;;;;;39.17;30.80;;;;;;;;;;5107101;28;20070;-64
2021/12/15 03:20:20;;;;;;;43.22;32.90;;;;;;;;;;5113747;28;20043;-64
2021/12/15 03:22:49;;;;;;;41.35;33.03;;;;;;;;;;5114293;28;20393;-65
2021/12/15 03:25:16;;;;;;;41.42;33.63;;;;;;;;;;5114613;28;20120;-64
2021/12/15 03:33:30;;;;;;;41.22;31.77;;;;;;;;;;5113444;28;20066;-65
2021/12/15 03:36:03;;;;;;;42.80;32.83;;;;;;;;;;5114153;28;20057;-64
2021/12/15 03:38:31;;;;;;;44.80;34.33;;;;;;;;;;5114800;28;20138;-64
2021/12/15 03:40:57;;;;;;;42.63;33.13;;;;;;;;;;5112788;28;20047;-64
2021/12/15 03:43:24;;;;;;;43.63;33.33;;;;;;;;;;5114558;28;20107;-64
2021/12/15 03:45:51;;;;;;;47.08;35.75;;;;;;;;;;5113876;28;20047;-64
2021/12/15 03:48:19;;;;;;;43.25;34.13;;;;;;;;;;5113148;28;20553;-64
2021/12/15 03:50:47;;;;;;;45.53;34.47;;;;;;;;;;5113997;28;20089;-64
2021/12/15 03:53:14;;;;;;;44.58;34.60;;;;;;;;;;5114046;28;20100;-64
2021/12/15 03:55:42;;;;;;;44.85;34.05;;;;;;;;;;5113093;28;20047;-64
2021/12/15 03:58:11;;;;;;;46.20;36.10;;;;;;;;;;5114863;27;20043;-64
2021/12/15 04:00:39;;;;;;;46.40;34.08;;;;;;;;;;5113568;28;20051;-64
2021/12/15 04:03:08;;;;;;;41.58;32.78;;;;;;;;;;5112882;28;20055;-64
2021/12/15 04:05:34;;;;;;;47.97;35.45;;;;;;;;;;5113757;28;20112;-64
2021/12/15 04:08:00;;;;;;;45.03;35.20;;;;;;;;;;5113354;28;20093;-64
2021/12/15 04:10:27;;;;;;;46.90;35.67;;;;;;;;;;5112820;28;20047;-64
2021/12/15 04:12:54;;;;;;;47.17;35.42;;;;;;;;;;5113427;28;20071;-64
2021/12/15 04:15:27;;;;;;;46.88;35.38;;;;;;;;;;5113200;28;20043;-64
2021/12/15 04:17:55;;;;;;;49.78;36.97;;;;;;;;;;5113223;28;20104;-64
2021/12/15 04:20:23;;;;;;;46.80;35.70;;;;;;;;;;5113371;28;20047;-64
2021/12/15 04:22:49;;;;;;;44.03;35.22;;;;;;;;;;5112363;28;20043;-65
2021/12/15 04:25:19;;;;;;;44.78;35.58;;;;;;;;;;5113369;28;20107;-65
2021/12/15 04:27:51;;;;;;;44.80;34.20;;;;;;;;;;5112974;28;20551;-65
2021/12/15 04:30:19;;;;;;;47.65;35.70;;;;;;;;;;5112397;28;20048;-64
2021/12/15 04:32:46;;;;;;;45.55;35.83;;;;;;;;;;5112974;28;20073;-64
2021/12/15 04:35:13;;;;;;;48.83;36.97;;;;;;;;;;5113168;28;20040;-64
2021/12/15 04:37:40;;;;;;;48.08;35.55;;;;;;;;;;5112386;28;20089;-64
2021/12/15 04:40:08;;;;;;;46.88;36.53;;;;;;;;;;5112922;28;20492;-65
2021/12/15 04:42:34;;;;;;;47.13;36.40;;;;;;;;;;5113084;27;20047;-64
2021/12/15 04:45:00;;;;;;;47.67;35.47;;;;;;;;;;5111789;28;20048;-64
2021/12/15 04:47:28;;;;;;;46.13;35.03;;;;;;;;;;5111429;28;20073;-64
2021/12/15 04:49:55;;;;;;;44.30;34.72;;;;;;;;;;5111673;28;20092;-64
2021/12/15 04:52:23;;;;;;;48.45;36.83;;;;;;;;;;5111294;27;20047;-64
2021/12/15 04:54:49;;;;;;;48.97;36.72;;;;;;;;;;5112391;28;20481;-65
2021/12/15 04:57:17;;;;;;;49.58;36.08;;;;;;;;;;5112798;28;20052;-65
2021/12/15 04:59:43;;;;;;;48.55;36.63;;;;;;;;;;5111818;28;20047;-64
2021/12/15 05:02:10;;;;;;;48.47;35.80;;;;;;;;;;5112376;28;20047;-64
2021/12/15 05:04:38;;;;;;;47.40;34.92;;;;;;;;;;5111682;28;20093;-64
2021/12/15 05:07:05;;;;;;;45.63;36.08;;;;;;;;;;5112292;28;20040;-64
2021/12/15 05:09:31;;;;;;;45.38;35.40;;;;;;;;;;5112436;28;20447;-64
2021/12/15 05:11:57;;;;;;;50.92;37.08;;;;;;;;;;5111367;28;20035;-65
2021/12/15 05:14:24;;;;;;;50.78;37.25;;;;;;;;;;5112964;28;20051;-65
2021/12/15 05:16:51;;;;;;;50.55;37.08;;;;;;;;;;5111849;28;20104;-64
2021/12/15 05:19:18;;;;;;;49.05;37.63;;;;;;;;;;5111291;28;20482;-64
2021/12/15 05:21:46;;;;;;;49.33;37.83;;;;;;;;;;5111866;28;20410;-64
2021/12/15 05:24:22;;;;;;;49.17;36.88;;;;;;;;;;5112239;28;20076;-64
2021/12/15 05:26:49;;;;;;;48.47;36.22;;;;;;;;;;5111209;28;20047;-64
2021/12/15 05:29:15;;;;;;;53.00;38.67;;;;;;;;;;5111969;28;20052;-64
2021/12/15 05:31:42;;;;;;;48.45;37.17;;;;;;;;;;5111965;28;20085;-64
2021/12/15 05:34:08;;;;;;;49.35;36.42;;;;;;;;;;5111308;28;20482;-64
2021/12/15 05:36:34;;;;;;;52.65;38.47;;;;;;;;;;5112144;28;20044;-65
2021/12/15 05:39:02;;;;;;;50.55;36.90;;;;;;;;;;5111970;28;20048;-64
2021/12/15 05:41:28;;;;;;;48.30;36.63;;;;;;;;;;5111231;28;20044;-64
2021/12/15 05:43:55;;;;;;;50.08;37.92;;;;;;;;;;5112064;28;20039;-62
2021/12/15 05:46:21;;;;;;;48.08;36.55;;;;;;;;;;5112545;28;20144;-62
2021/12/15 05:48:47;;;;;;;50.13;37.25;;;;;;;;;;5110833;28;20235;-62
2021/12/15 05:51:13;;;;;;;51.17;37.00;;;;;;;;;;5111674;28;20077;-62
2021/12/15 05:53:40;;;;;;;48.67;37.08;;;;;;;;;;5111142;28;20478;-64
2021/12/15 05:56:07;;;;;;;50.78;37.70;;;;;;;;;;5111672;28;20048;-61
2021/12/15 05:58:34;;;;;;;49.08;36.85;;;;;;;;;;5111611;28;20102;-62
2021/12/15 06:01:00;;;;;;;49.97;37.08;;;;;;;;;;5110438;28;20064;-62
2021/12/15 06:03:26;;;;;;;50.03;37.58;;;;;;;;;;5111457;28;20097;-62
2021/12/15 06:05:53;;;;;;;50.00;37.67;;;;;;;;;;5111390;28;20054;-62
2021/12/15 06:08:19;;;;;;;45.47;35.67;;;;;;;;;;5110743;28;20112;-61
2021/12/15 06:10:45;;;;;;;47.40;35.13;;;;;;;;;;5111089;28;20052;-62
2021/12/15 06:13:13;;;;;;;47.97;35.97;;;;;;;;;;5111517;28;20048;-62
2021/12/15 06:15:40;;;;;;;46.28;35.67;;;;;;;;;;5110754;28;20044;-63
2021/12/15 06:18:07;;;;;;;47.95;36.22;;;;;;;;;;5111569;28;20429;-63
2021/12/15 06:20:34;;;;;;;48.42;35.95;;;;;;;;;;5111346;28;20051;-64
2021/12/15 06:23:05;;;;;;;48.13;36.45;;;;;;;;;;5110395;28;20108;-61
2021/12/15 06:25:31;;;;;;;47.63;35.53;;;;;;;;;;5111307;28;20044;-62
2021/12/15 06:27:58;;;;;;;50.65;36.35;;;;;;;;;;5110922;28;20040;-63
2021/12/15 06:30:25;;;;;;;46.63;35.80;;;;;;;;;;5110683;28;20043;-63
2021/12/15 06:32:52;;;;;;;53.95;37.85;;;;;;;;;;5111074;28;20052;-62
2021/12/15 06:35:18;;;;;;;47.72;35.92;;;;;;;;;;5111389;28;20048;-62
2021/12/15 06:37:44;;;;;;;46.33;35.08;;;;;;;;;;5110117;28;20075;-65
2021/12/15 06:40:11;;;;;;;44.72;32.30;;;;;;;;;;5111577;28;20040;-61
2021/12/15 06:42:38;;;;;;;48.95;35.72;;;;;;;;;;5111388;28;20051;-62
2021/12/15 06:45:05;;;;;;;48.60;36.25;;;;;;;;;;5110424;28;20052;-62
2021/12/15 06:57:16;;;;;;;48.50;34.70;;;;;;;;;;5111041;28;20036;-62
2021/12/15 06:58:57;;;;;;;49.05;35.28;;;;;;;;;;5109990;28;20050;-65
2021/12/15 07:01:23;;;;;;;53.00;36.92;;;;;;;;;;5110753;28;20048;-64
2021/12/15 07:03:50;;;;;;;48.83;34.20;;;;;;;;;;5110863;28;20044;-65
2021/12/15 07:06:17;;;;;;;48.63;34.85;;;;;;;;;;5110331;28;20134;-65
2021/12/15 07:08:43;;;;;;;45.33;33.20;;;;;;;;;;5110571;28;20047;-65
2021/12/15 07:11:09;;;;;;;46.40;33.58;;;;;;;;;;5110163;28;20051;-64
2021/12/15 07:13:37;;;;;;;47.90;34.58;;;;;;;;;;5110821;28;20089;-62
2021/12/15 07:16:07;;;;;;;47.50;34.55;;;;;;;;;;5114184;28;20125;-61
2021/12/15 07:18:50;;;;;;;49.85;34.63;;;;;;;;;;5113660;28;20539;-61
2021/12/15 07:21:21;;;;;;;44.17;32.95;;;;;;;;;;5114554;27;20379;-62
2021/12/15 07:23:48;;;;;;;48.42;35.50;;;;;;;;;;5114143;28;20070;-62
2021/12/15 07:26:15;;;;;;;54.80;35.58;;;;;;;;;;5113557;28;20096;-62
2021/12/15 07:28:41;;;;;;;47.60;33.65;;;;;;;;;;5114545;28;20052;-62
2021/12/15 07:31:08;;;;;;;49.50;34.15;;;;;;;;;;5114459;28;20043;-61
2021/12/15 07:33:34;;;;;;;46.83;34.30;;;;;;;;;;5113598;28;20047;-62
2021/12/15 07:36:00;;;;;;;49.05;34.60;;;;;;;;;;5113980;28;20046;-62
2021/12/15 07:38:28;;;;;;;48.35;33.42;;;;;;;;;;5114112;28;20476;-62
2021/12/15 07:40:55;;;;;;;47.80;34.20;;;;;;;;;;5113135;28;20108;-62
2021/12/15 07:43:26;;;;;;;47.50;33.40;;;;;;;;;;5114225;28;20043;-61
2021/12/15 07:45:54;;;;;;;48.55;34.35;;;;;;;;;;5113990;28;20077;-62
2021/12/15 07:48:22;;;;;;;52.25;35.22;;;;;;;;;;5113273;28;20077;-63
2021/12/15 07:50:51;;;;;;;49.47;35.00;;;;;;;;;;5113626;28;20051;-62
2021/12/15 07:53:18;;;;;;;48.60;33.20;;;;;;;;;;5113090;28;20097;-61
2021/12/15 07:55:46;;;;;;;48.08;34.55;;;;;;;;;;5113837;28;20112;-61
2021/12/15 07:58:12;;;;;;;50.22;34.88;;;;;;;;;;5114685;27;20047;-61
2021/12/15 08:00:40;;;;;;;49.60;34.88;;;;;;;;;;5112934;28;20048;-61
2021/12/15 08:03:07;;;;;;;48.10;34.38;;;;;;;;;;5113671;28;20047;-62
2021/12/15 08:05:34;;;;;;;49.72;34.95;;;;;;;;;;5113358;28;20089;-62
2021/12/15 08:08:00;;;;;;;50.00;33.17;;;;;;;;;;5112686;28;20044;-62
2021/12/15 08:10:26;;;;;;;48.47;33.05;;;;;;;;;;5113606;28;20509;-61
2021/12/15 08:12:54;;;;;;;47.70;32.75;;;;;;;;;;5113543;28;20055;-61
2021/12/15 08:15:20;;;;;;;49.22;33.40;;;;;;;;;;5113147;28;20043;-61
2021/12/15 08:17:50;;;;;;;45.92;31.63;;;;;;;;;;5113434;28;20047;-62
2021/12/15 08:20:17;;;;;;;47.92;33.78;;;;;;;;;;5113546;28;20548;-61
2021/12/15 08:22:44;;;;;;;48.90;33.22;;;;;;;;;;5112801;28;20047;-61
2021/12/15 08:25:11;;;;;;;50.65;33.83;;;;;;;;;;5113520;28;20097;-61
2021/12/15 08:27:38;;;;;;;49.47;33.40;;;;;;;;;;5113641;28;20040;-61
2021/12/15 08:30:07;;;;;;;49.38;34.08;;;;;;;;;;5112412;28;20096;-62
2021/12/15 08:32:34;;;;;;;49.90;33.05;;;;;;;;;;5113431;28;20100;-61
2021/12/15 08:35:00;;;;;;;49.55;33.95;;;;;;;;;;5113062;28;20081;-61
2021/12/15 08:37:26;;;;;;;51.70;34.38;;;;;;;;;;5113020;28;20036;-61
2021/12/15 08:39:52;;;;;;;50.17;33.25;;;;;;;;;;5113178;28;20085;-61
2021/12/15 08:42:19;;;;;;;50.15;32.53;;;;;;;;;;5113357;27;20043;-61
2021/12/15 08:44:46;;;;;;;50.63;33.38;;;;;;;;;;5112187;28;20043;-62
2021/12/15 08:47:14;;;;;;;52.25;33.92;;;;;;;;;;5113144;28;20043;-61
2021/12/15 08:49:40;;;;;;;51.55;33.15;;;;;;;;;;5112207;28;20048;-61
2021/12/15 08:52:07;;;;;;;52.25;33.60;;;;;;;;;;5112685;28;20482;-62
2021/12/15 08:54:34;;;;;;;50.00;32.95;;;;;;;;;;5113222;28;20481;-61
2021/12/15 08:57:00;;;;;;;48.33;32.08;;;;;;;;;;5111955;27;20043;-62
2021/12/15 08:59:27;;;;;;;50.45;33.03;;;;;;;;;;5112964;28;20048;-62
2021/12/15 09:01:53;;;;;;;51.03;33.67;;;;;;;;;;5112455;28;20508;-62
2021/12/15 09:04:21;;;;;;;51.70;33.33;;;;;;;;;;5111961;28;20047;-61
2021/12/15 09:06:48;;;;;;;50.88;33.53;;;;;;;;;;5112574;28;20456;-61
2021/12/15 09:09:15;;;;;;;49.05;33.22;;;;;;;;;;5112798;28;20105;-61
2021/12/15 09:11:42;;;;;;;50.85;33.63;;;;;;;;;;5111691;28;20551;-61
2021/12/15 09:14:10;;;;;;;48.60;32.78;;;;;;;;;;5112670;28;20047;-61
2021/12/15 09:16:36;;;;;;;53.00;33.75;;;;;;;;;;5112507;28;20051;-61
2021/12/15 09:19:03;;;;;;;52.10;33.50;;;;;;;;;;5112010;28;20052;-61
2021/12/15 09:21:32;;;;;;;51.72;33.50;;;;;;;;;;5112811;28;20047;-61
2021/12/15 09:23:58;;;;;;;54.33;35.17;;;;;;;;;;5112273;28;20044;-61
2021/12/15 09:26:25;;;;;;;50.55;34.28;;;;;;;;;;5111101;28;20043;-61
2021/12/15 09:28:51;;;;;;;54.22;34.40;;;;;;;;;;5111660;28;20047;-62
2021/12/15 09:31:18;;;;;;;51.97;33.70;;;;;;;;;;5111270;28;20047;-61
2021/12/15 09:33:45;;;;;;;49.88;32.67;;;;;;;;;;5110685;28;20039;-61
2021/12/15 09:36:13;;;;;;;57.35;34.58;;;;;;;;;;5112400;28;20043;-61
2021/12/15 09:38:41;;;;;;;52.83;35.53;;;;;;;;;;5111398;28;20075;-61
2021/12/15 09:41:09;;;;;;;49.03;32.08;;;;;;;;;;5111993;28;20452;-61
2021/12/15 09:43:36;;;;;;;51.42;34.10;;;;;;;;;;5112006;28;20105;-61
2021/12/15 09:46:09;;;;;;;51.95;34.65;;;;;;;;;;5110934;28;20818;-60
2021/12/15 10:02:40;;;;;;;46.53;31.02;;;;;;;;;;5111765;28;20132;-61
2021/12/15 10:05:18;;;;;;;50.13;32.83;;;;;;;;;;5111975;28;20044;-61
2021/12/15 10:10:46;;;;;;;54.72;33.13;;;;;;;;;;5111755;28;20050;-61
2021/12/15 10:18:58;;;;;;;49.33;31.83;;;;;;;;;;5068565;28;20383;-62
2021/12/15 10:21:26;;;;;;;47.58;32.22;;;;;;;;;;5101796;28;20043;-62
2021/12/15 10:23:52;;;;;;;47.25;30.98;;;;;;;;;;5111510;28;20074;-60
2021/12/15 10:26:21;;;;;;;50.75;31.98;;;;;;;;;;5111753;28;20048;-62
2021/12/15 10:28:52;;;;;;;52.58;34.47;;;;;;;;;;5110736;28;20043;-61
2021/12/15 10:31:19;;;;;;;51.33;32.90;;;;;;;;;;5111471;28;20046;-61
2021/12/15 10:33:47;;;;;;;49.63;32.78;;;;;;;;;;5111511;28;20044;-60
2021/12/15 10:36:15;;;;;;;46.42;31.33;;;;;;;;;;5111063;28;20096;-60
2021/12/15 10:38:44;;;;;;;47.65;32.70;;;;;;;;;;5104471;28;20044;-60
2021/12/15 10:41:14;;;;;;;48.15;32.60;;;;;;;;;;5090935;28;20051;-60
2021/12/15 10:43:44;;;;;;;44.72;31.73;;;;;;;;;;5090631;28;20536;-61
2021/12/15 10:46:12;;;;;;;47.33;30.92;;;;;;;;;;5090805;28;20067;-60
2021/12/15 10:48:45;;;;;;;48.40;32.42;;;;;;;;;;5091195;28;20052;-60
2021/12/15 10:51:20;;;;;;;46.47;31.42;;;;;;;;;;5093811;28;20414;-62
2021/12/15 10:53:46;;;;;;;44.60;30.63;;;;;;;;;;5094193;28;20184;-61
2021/12/15 10:56:14;;;;;;;44.60;31.33;;;;;;;;;;5093921;28;20058;-61
2021/12/15 10:58:42;;;;;;;46.38;31.33;;;;;;;;;;5101579;28;20094;-61
2021/12/15 11:01:23;;;;;;;46.00;31.15;;;;;;;;;;5114899;28;20099;-61
2021/12/15 11:03:51;;;;;;;47.42;32.47;;;;;;;;;;5113890;28;20043;-61
2021/12/15 11:06:22;;;;;;;46.58;31.65;;;;;;;;;;5114940;28;20100;-61
2021/12/15 11:08:49;;;;;;;44.22;31.17;;;;;;;;;;5114067;28;20474;-61
2021/12/15 11:11:27;;;;;;;42.95;31.40;;;;;;;;;;5113686;28;20044;-61
2021/12/15 11:13:53;;;;;;;46.72;31.45;;;;;;;;;;5114587;28;20047;-61
2021/12/15 11:16:27;;;;;;;43.25;30.83;;;;;;;;;;5114783;28;20117;-61
2021/12/15 11:18:55;;;;;;;43.63;30.13;;;;;;;;;;5113476;28;20047;-61
2021/12/15 11:21:21;;;;;;;42.70;30.27;;;;;;;;;;5114732;28;20089;-61
2021/12/15 11:23:47;;;;;;;41.25;29.58;;;;;;;;;;5113551;28;20050;-61
2021/12/15 11:26:15;;;;;;;41.67;29.05;;;;;;;;;;5113893;28;20117;-61
2021/12/15 11:28:42;;;;;;;38.15;28.42;;;;;;;;;;5114780;28;20138;-61
2021/12/15 11:31:11;;;;;;;39.55;29.00;;;;;;;;;;5114027;28;20505;-61
2021/12/15 11:33:38;;;;;;;42.97;30.20;;;;;;;;;;5114168;28;20499;-61
2021/12/15 11:36:07;;;;;;;38.40;29.10;;;;;;;;;;5113941;28;20044;-61
2021/12/15 11:38:35;;;;;;;43.78;29.35;;;;;;;;;;5113151;28;20047;-61
2021/12/15 11:41:04;;;;;;;37.83;28.90;;;;;;;;;;5114009;28;20467;-61
2021/12/15 11:43:35;;;;;;;39.15;28.88;;;;;;;;;;5114292;28;20040;-61
2021/12/15 11:46:03;;;;;;;38.65;29.52;;;;;;;;;;5113024;28;20340;-61
2021/12/15 11:48:32;;;;;;;39.75;28.92;;;;;;;;;;5113936;28;20039;-61
2021/12/15 11:51:00;;;;;;;39.08;28.88;;;;;;;;;;5113933;28;20154;-61
2021/12/15 11:53:36;;;;;;;36.60;27.55;;;;;;;;;;5112729;28;20044;-61
2021/12/15 11:56:02;;;;;;;;;;;;;;;;;;5114325;28;20047;-61
2021/12/15 11:58:31;;;;;;;36.15;28.23;;;;;;;;;;5114321;28;19927;-61
2021/12/15 12:00:57;;;;;;;36.33;28.38;;;;;;;;;;5111983;28;20039;-61
2021/12/15 12:03:23;;;;;;;37.35;27.65;;;;;;;;;;5113876;28;20095;-61
2021/12/15 12:05:50;;;;;;;40.20;29.80;;;;;;;;;;5113601;28;20043;-60
2021/12/15 12:08:16;;;;;;;37.35;27.98;;;;;;;;;;5112701;28;20058;-60
2021/12/15 12:10:46;;;;;;;39.42;28.45;;;;;;;;;;5113332;28;20108;-60
2021/12/15 12:13:19;;;;;;;35.88;26.95;;;;;;;;;;5113704;28;20054;-60
2021/12/15 12:15:47;;;;;;;36.20;27.02;;;;;;;;;;5112424;28;20043;-60
2021/12/15 12:18:16;;;;;;;35.00;27.08;;;;;;;;;;5113581;28;20134;-60
2021/12/15 12:20:44;;;;;;;33.33;26.00;;;;;;;;;;5112790;28;20065;-61
2021/12/15 12:23:11;;;;;;;35.70;27.25;;;;;;;;;;5113015;28;20043;-61
2021/12/15 12:25:40;;;;;;;32.78;26.30;;;;;;;;;;5113500;28;20109;-61
2021/12/15 12:28:09;;;;;;;34.35;25.65;;;;;;;;;;5112310;28;20108;-61
2021/12/15 12:30:36;;;;;;;31.80;25.02;;;;;;;;;;5113105;28;20048;-61
2021/12/15 12:33:08;;;;;;;32.78;25.83;;;;;;;;;;5112971;28;20104;-61
2021/12/15 12:35:34;;;;;;;30.42;24.98;;;;;;;;;;5112819;28;20274;-61
2021/12/15 12:38:02;;;;;;;31.13;24.73;;;;;;;;;;5112454;28;20048;-61
2021/12/15 12:40:30;;;;;;;31.20;23.92;;;;;;;;;;5112940;28;20104;-64
2021/12/15 12:42:57;;;;;;;30.33;25.35;;;;;;;;;;5111960;28;20047;-64
2021/12/15 12:45:35;;;;;;;30.75;24.73;;;;;;;;;;5113316;27;20047;-64
2021/12/15 12:48:29;;;;;;;28.85;24.02;;;;;;;;;;5113192;27;20079;-61
2021/12/15 12:59:27;;;;;;;28.60;22.98;;;;;;;;;;5110031;28;20050;-61
2021/12/15 13:01:55;;;;;;;26.80;21.60;;;;;;;;;;5110083;28;20062;-61
2021/12/15 13:04:21;;;;;;;26.60;21.55;;;;;;;;;;5112108;28;20040;-61
2021/12/15 13:06:49;;;;;;;32.60;21.90;;;;;;;;;;5112593;28;20046;-61
2021/12/15 13:09:19;;;;;;;27.38;21.33;;;;;;;;;;5112801;28;20040;-61
2021/12/15 13:11:49;;;;;;;26.67;20.48;;;;;;;;;;5110728;28;20048;-61
2021/12/15 13:14:16;;;;;;;25.23;21.20;;;;;;;;;;5112508;28;20067;-61
2021/12/15 13:16:43;;;;;;;27.63;21.10;;;;;;;;;;5112007;28;20040;-61
2021/12/15 13:19:15;;;;;;;24.15;19.77;;;;;;;;;;5112680;28;20107;-61
2021/12/15 13:22:05;;;;;;;27.15;19.90;;;;;;;;;;5112622;28;20043;-61
2021/12/15 13:30:04;;;;;;;23.38;18.83;;;;;;;;;;5112076;28;20066;-61
2021/12/15 13:32:33;;;;;;;22.90;18.63;;;;;;;;;;5111679;28;20047;-61
2021/12/15 13:35:00;;;;;;;25.65;18.25;;;;;;;;;;5111939;28;20050;-61
2021/12/15 13:37:44;;;;;;;25.73;19.02;;;;;;;;;;5112547;28;20126;-61
2021/12/15 13:40:11;;;;;;;25.13;19.15;;;;;;;;;;5111614;28;20093;-61
2021/12/15 13:42:41;;;;;;;22.58;18.08;;;;;;;;;;5112224;28;20043;-61
2021/12/15 13:45:22;;;;;;;20.85;16.95;;;;;;;;;;5111266;28;20043;-61
2021/12/15 13:47:48;;;;;;;23.20;18.80;;;;;;;;;;5111565;28;20100;-61
2021/12/15 13:50:17;;;;;;;22.17;17.70;;;;;;;;;;5112478;28;20071;-61
2021/12/15 13:52:44;;;;;;;21.05;16.83;;;;;;;;;;5110958;28;20183;-61
2021/12/15 13:55:20;;;;;;;21.65;16.83;;;;;;;;;;5111938;28;20044;-61
2021/12/15 13:58:01;;;;;;;24.17;17.40;;;;;;;;;;5111676;28;20036;-61
2021/12/15 14:00:29;;;;;;;22.10;16.90;;;;;;;;;;5090951;28;20085;-61
2021/12/15 14:03:04;;;;;;;23.38;17.63;;;;;;;;;;5091102;28;20099;-61
2021/12/15 14:05:32;;;;;;;29.48;17.63;;;;;;;;;;5091564;28;20048;-61
2021/12/15 14:08:01;;;;;;;22.50;17.98;;;;;;;;;;5090743;28;20048;-61
2021/12/15 14:10:42;;;;;;;18.25;15.85;;;;;;;;;;5091281;28;20040;-61
2021/12/15 14:13:08;;;;;;;22.58;17.02;;;;;;;;;;5090812;28;20445;-61
2021/12/15 14:15:45;;;;;;;21.25;16.30;;;;;;;;;;5091441;28;20044;-62
2021/12/15 14:18:13;;;;;;;17.88;15.80;;;;;;;;;;5091295;28;20105;-61
2021/12/15 14:20:42;;;;;;;19.33;15.75;;;;;;;;;;5090596;28;20113;-61
2021/12/15 14:23:09;;;;;;;21.90;16.85;;;;;;;;;;5091956;28;20113;-61
2021/12/15 14:25:37;;;;;;;18.73;14.88;;;;;;;;;;5095499;28;20044;-61
2021/12/15 14:28:05;;;;;;;20.42;16.20;;;;;;;;;;5094605;28;20055;-61
2021/12/15 14:30:32;;;;;;;19.40;15.73;;;;;;;;;;5100560;28;20043;-61
2021/12/15 14:32:58;;;;;;;17.02;15.15;;;;;;;;;;5115148;27;20096;-62
2021/12/15 14:35:25;;;;;;;19.02;15.60;;;;;;;;;;5114823;28;20490;-61
2021/12/15 14:37:53;;;;;;;21.00;15.10;;;;;;;;;;5115574;28;20051;-62
2021/12/15 14:40:19;;;;;;;16.75;14.52;;;;;;;;;;5115862;28;20100;-61
2021/12/15 14:42:45;;;;;;;16.67;14.63;;;;;;;;;;5114575;28;20066;-61
2021/12/15 14:45:12;;;;;;;16.27;13.55;;;;;;;;;;5115519;28;20043;-62
2021/12/15 14:47:39;;;;;;;15.70;13.93;;;;;;;;;;5116369;28;20047;-62
2021/12/15 14:50:08;;;;;;;16.52;14.25;;;;;;;;;;5114283;28;20055;-62
2021/12/15 14:52:35;;;;;;;19.45;15.10;;;;;;;;;;5115776;28;20048;-61
2021/12/15 14:55:06;;;;;;;15.80;14.13;;;;;;;;;;5115224;28;20051;-61
2021/12/15 14:57:34;;;;;;;17.27;14.02;;;;;;;;;;5114757;28;20466;-61
2021/12/15 15:00:01;;;;;;;16.55;13.68;;;;;;;;;;5114882;28;20517;-61
2021/12/15 15:02:28;;;;;;;15.95;13.48;;;;;;;;;;5114087;28;20051;-61
2021/12/15 15:04:56;;;;;;;15.88;14.15;;;;;;;;;;5115124;28;20047;-61
2021/12/15 15:07:24;;;;;;;16.95;13.90;;;;;;;;;;5115508;28;20055;-61
2021/12/15 15:09:51;;;;;;;17.25;14.70;;;;;;;;;;5114175;27;20059;-62
2021/12/15 15:12:20;;;;;;;16.80;14.20;;;;;;;;;;5114924;27;20044;-62
2021/12/15 15:14:48;;;;;;;15.75;13.68;;;;;;;;;;5114559;28;20055;-61
2021/12/15 15:17:24;;;;;;;15.20;13.70;;;;;;;;;;5114483;28;20048;-62
2021/12/15 15:19:53;;;;;;;16.13;14.10;;;;;;;;;;5114522;28;20494;-61
2021/12/15 15:22:21;;;;;;;15.70;14.10;;;;;;;;;;5114663;28;20533;-61
2021/12/15 15:24:48;;;;;;;15.48;13.50;;;;;;;;;;5113464;28;20044;-61
2021/12/15 15:27:15;;;;;;;15.13;13.50;;;;;;;;;;5114492;28;20491;-61
2021/12/15 15:29:45;;;;;;;16.48;13.95;;;;;;;;;;5114357;28;20079;-62
2021/12/15 15:32:14;;;;;;;16.48;13.55;;;;;;;;;;5113596;28;20279;-63
2021/12/15 15:34:42;;;;;;;15.90;13.40;;;;;;;;;;5114047;28;20085;-61